sensor_id;sensor_type;location;lat;lon;timestamp;temperature;humidity
1225;DHT22;602;48.000;7.840;2022-11-24T00:01:44;10.40;99.90
1225;DHT22;602;48.000;7.840;2022-11-24T00:04:11;10.50;99.90
1225;DHT22;602;48.000;7.840;2022-11-24T00:06:38;10.50;99.90
1225;DHT22;602;48.000;7.840;2022-11-24T00:09:06;10.50;99.90
1225;DHT22;602;48.000;7.840;2022-11-24T00:11:34;10.50;99.90
1225;DHT22;602;48.000;7.840;2022-11-24T00:14:03;10.50;99.90
1225;DHT22;602;48.000;7.840;2022-11-24T00:16:31;10.50;99.90
1225;DHT22;602;48.000;7.840;2022-11-24T00:19:00;10.50;99.90
1225;DHT22;602;48.000;7.840;2022-11-24T00:21:28;10.60;99.90
1225;DHT22;602;48.000;7.840;2022-11-24T00:23:56;10.60;99.90
1225;DHT22;602;48.000;7.840;2022-11-24T00:26:26;10.50;99.90
1225;DHT22;602;48.000;7.840;2022-11-24T00:28:54;10.40;99.90
1225;DHT22;602;48.000;7.840;2022-11-24T00:31:23;10.40;99.90
1225;DHT22;602;48.000;7.840;2022-11-24T00:33:52;10.40;99.90
1225;DHT22;602;48.000;7.840;2022-11-24T00:36:20;10.50;99.90
1225;DHT22;602;48.000;7.840;2022-11-24T00:38:51;10.50;99.90
1225;DHT22;602;48.000;7.840;2022-11-24T00:41:18;10.50;99.90
1225;DHT22;602;48.000;7.840;2022-11-24T00:43:46;10.50;99.90
1225;DHT22;602;48.000;7.840;2022-11-24T00:46:13;10.50;99.90
1225;DHT22;602;48.000;7.840;2022-11-24T00:48:39;10.50;99.90
1225;DHT22;602;48.000;7.840;2022-11-24T00:51:09;10.50;99.90
1225;DHT22;602;48.000;7.840;2022-11-24T00:53:36;10.40;99.90
1225;DHT22;602;48.000;7.840;2022-11-24T00:56:03;10.40;99.90
1225;DHT22;602;48.000;7.840;2022-11-24T00:58:31;10.40;99.90
1225;DHT22;602;48.000;7.840;2022-11-24T01:01:03;10.40;99.90
1225;DHT22;602;48.000;7.840;2022-11-24T01:03:31;10.40;99.90
1225;DHT22;602;48.000;7.840;2022-11-24T01:06:02;10.50;99.90
1225;DHT22;602;48.000;7.840;2022-11-24T01:08:28;10.40;99.90
1225;DHT22;602;48.000;7.840;2022-11-24T01:11:06;10.50;99.90
1225;DHT22;602;48.000;7.840;2022-11-24T01:13:33;10.50;99.90
1225;DHT22;602;48.000;7.840;2022-11-24T01:16:01;10.50;99.90
1225;DHT22;602;48.000;7.840;2022-11-24T01:18:28;10.40;99.90
1225;DHT22;602;48.000;7.840;2022-11-24T01:20:55;10.50;99.90
1225;DHT22;602;48.000;7.840;2022-11-24T01:23:22;10.50;99.90
1225;DHT22;602;48.000;7.840;2022-11-24T01:25:49;10.50;99.90
1225;DHT22;602;48.000;7.840;2022-11-24T01:28:16;10.50;99.90
1225;DHT22;602;48.000;7.840;2022-11-24T01:30:43;10.50;99.90
1225;DHT22;602;48.000;7.840;2022-11-24T01:33:13;10.50;99.90
1225;DHT22;602;48.000;7.840;2022-11-24T01:35:40;10.50;99.90
1225;DHT22;602;48.000;7.840;2022-11-24T01:38:07;10.50;99.90
1225;DHT22;602;48.000;7.840;2022-11-24T01:40:38;10.50;99.90
1225;DHT22;602;48.000;7.840;2022-11-24T01:43:14;10.50;99.90
1225;DHT22;602;48.000;7.840;2022-11-24T01:45:45;10.50;99.90
1225;DHT22;602;48.000;7.840;2022-11-24T01:48:19;10.50;99.90
1225;DHT22;602;48.000;7.840;2022-11-24T01:50:51;10.50;99.90
1225;DHT22;602;48.000;7.840;2022-11-24T01:53:21;10.40;99.90
1225;DHT22;602;48.000;7.840;2022-11-24T01:55:50;10.40;99.90
1225;DHT22;602;48.000;7.840;2022-11-24T01:58:20;10.40;99.90
1225;DHT22;602;48.000;7.840;2022-11-24T02:00:49;10.40;99.90
1225;DHT22;602;48.000;7.840;2022-11-24T02:03:23;10.40;99.90
1225;DHT22;602;48.000;7.840;2022-11-24T02:05:57;10.50;99.90
1225;DHT22;602;48.000;7.840;2022-11-24T02:08:37;10.50;99.90
1225;DHT22;602;48.000;7.840;2022-11-24T02:11:06;10.40;99.90
1225;DHT22;602;48.000;7.840;2022-11-24T02:13:33;10.40;99.90
1225;DHT22;602;48.000;7.840;2022-11-24T02:16:01;10.30;99.90
1225;DHT22;602;48.000;7.840;2022-11-24T02:18:39;10.30;99.90
1225;DHT22;602;48.000;7.840;2022-11-24T02:21:08;10.30;99.90
1225;DHT22;602;48.000;7.840;2022-11-24T02:23:48;10.30;99.90
1225;DHT22;602;48.000;7.840;2022-11-24T02:26:30;10.20;99.90
1225;DHT22;602;48.000;7.840;2022-11-24T02:29:03;10.20;99.90
1225;DHT22;602;48.000;7.840;2022-11-24T02:31:30;10.30;99.90
1225;DHT22;602;48.000;7.840;2022-11-24T02:33:57;10.20;99.90
1225;DHT22;602;48.000;7.840;2022-11-24T02:36:24;10.20;99.90
1225;DHT22;602;48.000;7.840;2022-11-24T02:38:52;10.20;99.90
1225;DHT22;602;48.000;7.840;2022-11-24T02:41:20;10.20;99.90
1225;DHT22;602;48.000;7.840;2022-11-24T02:44:00;10.20;99.90
1225;DHT22;602;48.000;7.840;2022-11-24T02:46:27;10.10;99.90
1225;DHT22;602;48.000;7.840;2022-11-24T02:48:55;10.20;99.90
1225;DHT22;602;48.000;7.840;2022-11-24T02:51:23;10.10;99.90
1225;DHT22;602;48.000;7.840;2022-11-24T02:53:55;10.20;99.90
1225;DHT22;602;48.000;7.840;2022-11-24T02:56:24;10.20;99.90
1225;DHT22;602;48.000;7.840;2022-11-24T02:59:07;10.20;99.90
1225;DHT22;602;48.000;7.840;2022-11-24T03:01:34;10.10;99.90
1225;DHT22;602;48.000;7.840;2022-11-24T03:04:03;10.10;99.90
1225;DHT22;602;48.000;7.840;2022-11-24T03:06:34;10.10;99.90
1225;DHT22;602;48.000;7.840;2022-11-24T03:09:04;10.20;99.90
1225;DHT22;602;48.000;7.840;2022-11-24T03:11:31;10.20;99.90
1225;DHT22;602;48.000;7.840;2022-11-24T03:14:02;10.20;99.90
1225;DHT22;602;48.000;7.840;2022-11-24T03:16:28;10.20;99.90
1225;DHT22;602;48.000;7.840;2022-11-24T03:18:55;10.20;99.90
1225;DHT22;602;48.000;7.840;2022-11-24T03:21:22;10.20;99.90
1225;DHT22;602;48.000;7.840;2022-11-24T03:23:49;10.20;99.90
1225;DHT22;602;48.000;7.840;2022-11-24T03:26:22;10.20;99.90
1225;DHT22;602;48.000;7.840;2022-11-24T03:28:53;10.20;99.90
1225;DHT22;602;48.000;7.840;2022-11-24T03:31:22;10.20;99.90
1225;DHT22;602;48.000;7.840;2022-11-24T03:33:54;10.20;99.90
1225;DHT22;602;48.000;7.840;2022-11-24T03:36:28;10.30;99.90
1225;DHT22;602;48.000;7.840;2022-11-24T03:38:56;10.30;99.90
1225;DHT22;602;48.000;7.840;2022-11-24T03:41:23;10.30;99.90
1225;DHT22;602;48.000;7.840;2022-11-24T03:43:50;10.30;99.90
1225;DHT22;602;48.000;7.840;2022-11-24T03:46:24;10.20;99.90
1225;DHT22;602;48.000;7.840;2022-11-24T03:48:51;10.30;99.90
1225;DHT22;602;48.000;7.840;2022-11-24T03:51:26;10.30;99.90
1225;DHT22;602;48.000;7.840;2022-11-24T03:53:57;10.30;99.90
1225;DHT22;602;48.000;7.840;2022-11-24T03:56:24;10.30;99.90
1225;DHT22;602;48.000;7.840;2022-11-24T03:58:52;10.30;99.90
1225;DHT22;602;48.000;7.840;2022-11-24T04:01:19;10.30;99.90
1225;DHT22;602;48.000;7.840;2022-11-24T04:03:47;10.30;99.90
1225;DHT22;602;48.000;7.840;2022-11-24T04:06:14;10.30;99.90
1225;DHT22;602;48.000;7.840;2022-11-24T04:08:46;10.40;99.90
1225;DHT22;602;48.000;7.840;2022-11-24T04:11:21;10.30;99.90
1225;DHT22;602;48.000;7.840;2022-11-24T04:14:05;10.30;99.90
1225;DHT22;602;48.000;7.840;2022-11-24T04:16:32;10.40;99.90
1225;DHT22;602;48.000;7.840;2022-11-24T04:19:00;10.40;99.90
1225;DHT22;602;48.000;7.840;2022-11-24T04:21:27;10.40;99.90
1225;DHT22;602;48.000;7.840;2022-11-24T04:23:57;10.40;99.90
1225;DHT22;602;48.000;7.840;2022-11-24T04:26:26;10.50;99.90
1225;DHT22;602;48.000;7.840;2022-11-24T04:28:53;10.50;99.90
1225;DHT22;602;48.000;7.840;2022-11-24T04:31:20;10.50;99.90
1225;DHT22;602;48.000;7.840;2022-11-24T04:33:47;10.50;99.90
1225;DHT22;602;48.000;7.840;2022-11-24T04:36:15;10.50;99.90
1225;DHT22;602;48.000;7.840;2022-11-24T04:38:42;10.50;99.90
1225;DHT22;602;48.000;7.840;2022-11-24T04:41:11;10.50;99.90
1225;DHT22;602;48.000;7.840;2022-11-24T04:43:40;10.50;99.90
1225;DHT22;602;48.000;7.840;2022-11-24T04:46:08;10.50;99.90
1225;DHT22;602;48.000;7.840;2022-11-24T04:48:36;10.60;99.90
1225;DHT22;602;48.000;7.840;2022-11-24T04:51:14;10.60;99.90
1225;DHT22;602;48.000;7.840;2022-11-24T04:53:47;10.50;99.90
1225;DHT22;602;48.000;7.840;2022-11-24T04:56:14;10.50;99.90
1225;DHT22;602;48.000;7.840;2022-11-24T04:58:41;10.50;99.90
1225;DHT22;602;48.000;7.840;2022-11-24T05:01:08;10.50;99.90
1225;DHT22;602;48.000;7.840;2022-11-24T05:03:39;10.50;99.90
1225;DHT22;602;48.000;7.840;2022-11-24T05:06:07;10.40;99.90
1225;DHT22;602;48.000;7.840;2022-11-24T05:08:35;10.40;99.90
1225;DHT22;602;48.000;7.840;2022-11-24T05:11:06;10.50;99.90
1225;DHT22;602;48.000;7.840;2022-11-24T05:13:33;10.40;99.90
1225;DHT22;602;48.000;7.840;2022-11-24T05:16:08;10.50;99.90
1225;DHT22;602;48.000;7.840;2022-11-24T05:18:40;10.50;99.90
1225;DHT22;602;48.000;7.840;2022-11-24T05:21:07;10.50;99.90
1225;DHT22;602;48.000;7.840;2022-11-24T05:23:35;10.60;99.90
1225;DHT22;602;48.000;7.840;2022-11-24T05:26:10;10.60;99.90
1225;DHT22;602;48.000;7.840;2022-11-24T05:28:37;10.70;99.90
1225;DHT22;602;48.000;7.840;2022-11-24T05:31:04;10.60;99.90
1225;DHT22;602;48.000;7.840;2022-11-24T05:33:31;10.70;99.90
1225;DHT22;602;48.000;7.840;2022-11-24T05:36:00;10.70;99.90
1225;DHT22;602;48.000;7.840;2022-11-24T05:38:27;10.60;99.90
1225;DHT22;602;48.000;7.840;2022-11-24T05:40:59;10.60;99.90
1225;DHT22;602;48.000;7.840;2022-11-24T05:43:28;10.60;99.90
1225;DHT22;602;48.000;7.840;2022-11-24T05:45:58;10.70;99.90
1225;DHT22;602;48.000;7.840;2022-11-24T05:48:27;10.60;99.90
1225;DHT22;602;48.000;7.840;2022-11-24T05:51:03;10.60;99.90
1225;DHT22;602;48.000;7.840;2022-11-24T05:53:30;10.70;99.90
1225;DHT22;602;48.000;7.840;2022-11-24T05:56:01;10.70;99.90
1225;DHT22;602;48.000;7.840;2022-11-24T05:58:36;10.70;99.90
1225;DHT22;602;48.000;7.840;2022-11-24T06:01:06;10.70;99.90
1225;DHT22;602;48.000;7.840;2022-11-24T06:03:33;10.70;99.90
1225;DHT22;602;48.000;7.840;2022-11-24T06:06:04;10.80;99.90
1225;DHT22;602;48.000;7.840;2022-11-24T06:08:32;10.80;99.90
1225;DHT22;602;48.000;7.840;2022-11-24T06:11:00;10.80;99.90
1225;DHT22;602;48.000;7.840;2022-11-24T06:13:43;10.70;99.90
1225;DHT22;602;48.000;7.840;2022-11-24T06:16:13;10.70;99.90
1225;DHT22;602;48.000;7.840;2022-11-24T06:18:40;10.70;99.90
1225;DHT22;602;48.000;7.840;2022-11-24T06:21:07;10.80;99.90
1225;DHT22;602;48.000;7.840;2022-11-24T06:23:40;10.90;99.90
1225;DHT22;602;48.000;7.840;2022-11-24T06:26:13;10.90;99.90
1225;DHT22;602;48.000;7.840;2022-11-24T06:28:43;10.90;99.90
1225;DHT22;602;48.000;7.840;2022-11-24T06:31:10;10.80;99.90
1225;DHT22;602;48.000;7.840;2022-11-24T06:33:40;10.70;99.90
1225;DHT22;602;48.000;7.840;2022-11-24T06:36:09;10.60;99.90
1225;DHT22;602;48.000;7.840;2022-11-24T06:38:41;10.60;99.90
1225;DHT22;602;48.000;7.840;2022-11-24T06:41:11;10.70;99.90
1225;DHT22;602;48.000;7.840;2022-11-24T06:43:42;10.70;99.90
1225;DHT22;602;48.000;7.840;2022-11-24T06:46:10;10.80;99.90
1225;DHT22;602;48.000;7.840;2022-11-24T06:48:37;10.80;99.90
1225;DHT22;602;48.000;7.840;2022-11-24T06:51:05;10.90;99.90
1225;DHT22;602;48.000;7.840;2022-11-24T06:53:34;10.90;99.90
1225;DHT22;602;48.000;7.840;2022-11-24T06:56:04;10.80;99.90
1225;DHT22;602;48.000;7.840;2022-11-24T06:58:31;10.80;99.90
1225;DHT22;602;48.000;7.840;2022-11-24T07:00:59;10.80;99.90
1225;DHT22;602;48.000;7.840;2022-11-24T07:03:26;10.80;99.90
1225;DHT22;602;48.000;7.840;2022-11-24T07:05:55;10.80;99.90
1225;DHT22;602;48.000;7.840;2022-11-24T07:08:22;10.80;99.90
1225;DHT22;602;48.000;7.840;2022-11-24T07:10:49;10.80;99.90
1225;DHT22;602;48.000;7.840;2022-11-24T07:13:17;10.70;99.90
1225;DHT22;602;48.000;7.840;2022-11-24T07:15:44;10.60;99.90
1225;DHT22;602;48.000;7.840;2022-11-24T07:18:12;10.60;99.90
1225;DHT22;602;48.000;7.840;2022-11-24T07:20:39;10.60;99.90
1225;DHT22;602;48.000;7.840;2022-11-24T07:23:06;10.50;99.90
1225;DHT22;602;48.000;7.840;2022-11-24T07:25:33;10.60;99.90
1225;DHT22;602;48.000;7.840;2022-11-24T07:28:01;10.50;99.90
1225;DHT22;602;48.000;7.840;2022-11-24T07:30:27;10.50;99.90
1225;DHT22;602;48.000;7.840;2022-11-24T07:32:58;10.50;99.90
1225;DHT22;602;48.000;7.840;2022-11-24T07:35:26;10.50;99.90
1225;DHT22;602;48.000;7.840;2022-11-24T07:37:54;10.50;99.90
1225;DHT22;602;48.000;7.840;2022-11-24T07:40:21;10.50;99.90
1225;DHT22;602;48.000;7.840;2022-11-24T07:42:48;10.50;99.90
1225;DHT22;602;48.000;7.840;2022-11-24T07:45:15;10.40;99.90
1225;DHT22;602;48.000;7.840;2022-11-24T07:47:42;10.40;99.90
1225;DHT22;602;48.000;7.840;2022-11-24T07:50:10;10.40;99.90
1225;DHT22;602;48.000;7.840;2022-11-24T07:52:38;10.30;99.90
1225;DHT22;602;48.000;7.840;2022-11-24T07:55:06;10.30;99.90
1225;DHT22;602;48.000;7.840;2022-11-24T07:57:33;10.30;99.90
1225;DHT22;602;48.000;7.840;2022-11-24T08:00:00;10.30;99.90
1225;DHT22;602;48.000;7.840;2022-11-24T08:02:27;10.30;99.90
1225;DHT22;602;48.000;7.840;2022-11-24T08:04:54;10.30;99.90
1225;DHT22;602;48.000;7.840;2022-11-24T08:07:21;10.40;99.90
1225;DHT22;602;48.000;7.840;2022-11-24T08:09:49;10.40;99.90
1225;DHT22;602;48.000;7.840;2022-11-24T08:12:17;10.40;99.90
1225;DHT22;602;48.000;7.840;2022-11-24T08:14:46;10.30;99.90
1225;DHT22;602;48.000;7.840;2022-11-24T08:17:14;10.40;99.90
1225;DHT22;602;48.000;7.840;2022-11-24T08:19:40;10.40;99.90
1225;DHT22;602;48.000;7.840;2022-11-24T08:22:07;10.40;99.90
1225;DHT22;602;48.000;7.840;2022-11-24T08:24:34;10.40;99.90
1225;DHT22;602;48.000;7.840;2022-11-24T08:27:03;10.50;99.90
1225;DHT22;602;48.000;7.840;2022-11-24T08:29:30;10.40;99.90
1225;DHT22;602;48.000;7.840;2022-11-24T08:31:57;10.40;99.90
1225;DHT22;602;48.000;7.840;2022-11-24T08:34:25;10.40;99.90
1225;DHT22;602;48.000;7.840;2022-11-24T08:36:52;10.40;99.90
1225;DHT22;602;48.000;7.840;2022-11-24T08:39:19;10.40;99.90
1225;DHT22;602;48.000;7.840;2022-11-24T08:41:46;10.50;99.90
1225;DHT22;602;48.000;7.840;2022-11-24T08:44:14;10.40;99.90
1225;DHT22;602;48.000;7.840;2022-11-24T08:46:43;10.50;99.90
1225;DHT22;602;48.000;7.840;2022-11-24T08:49:11;10.60;99.90
1225;DHT22;602;48.000;7.840;2022-11-24T08:51:39;10.60;99.90
1225;DHT22;602;48.000;7.840;2022-11-24T08:54:07;10.60;99.90
1225;DHT22;602;48.000;7.840;2022-11-24T08:56:34;10.60;99.90
1225;DHT22;602;48.000;7.840;2022-11-24T08:59:02;10.70;99.90
1225;DHT22;602;48.000;7.840;2022-11-24T09:01:30;10.70;99.90
1225;DHT22;602;48.000;7.840;2022-11-24T09:03:57;10.60;99.90
1225;DHT22;602;48.000;7.840;2022-11-24T09:06:26;10.70;99.90
1225;DHT22;602;48.000;7.840;2022-11-24T09:08:55;10.80;99.90
1225;DHT22;602;48.000;7.840;2022-11-24T09:11:23;10.90;99.90
1225;DHT22;602;48.000;7.840;2022-11-24T09:13:50;10.90;99.90
1225;DHT22;602;48.000;7.840;2022-11-24T09:16:19;11.00;99.90
1225;DHT22;602;48.000;7.840;2022-11-24T09:18:53;11.00;99.90
1225;DHT22;602;48.000;7.840;2022-11-24T09:21:20;11.10;99.90
1225;DHT22;602;48.000;7.840;2022-11-24T09:23:49;11.30;99.90
1225;DHT22;602;48.000;7.840;2022-11-24T09:26:18;11.40;99.90
1225;DHT22;602;48.000;7.840;2022-11-24T09:28:45;11.40;99.90
1225;DHT22;602;48.000;7.840;2022-11-24T09:31:13;11.50;99.90
1225;DHT22;602;48.000;7.840;2022-11-24T09:33:41;11.40;99.90
1225;DHT22;602;48.000;7.840;2022-11-24T09:36:11;11.40;99.90
1225;DHT22;602;48.000;7.840;2022-11-24T09:38:39;11.40;99.90
1225;DHT22;602;48.000;7.840;2022-11-24T09:41:43;11.50;99.90
1225;DHT22;602;48.000;7.840;2022-11-24T09:44:32;11.40;99.90
1225;DHT22;602;48.000;7.840;2022-11-24T09:47:08;11.40;99.90
1225;DHT22;602;48.000;7.840;2022-11-24T09:49:44;11.50;99.90
1225;DHT22;602;48.000;7.840;2022-11-24T09:52:57;11.50;99.90
1225;DHT22;602;48.000;7.840;2022-11-24T09:55:32;11.60;99.90
1225;DHT22;602;48.000;7.840;2022-11-24T09:58:11;11.70;99.90
1225;DHT22;602;48.000;7.840;2022-11-24T10:00:40;11.80;99.90
1225;DHT22;602;48.000;7.840;2022-11-24T10:03:14;11.80;99.90
1225;DHT22;602;48.000;7.840;2022-11-24T10:05:42;11.80;99.90
1225;DHT22;602;48.000;7.840;2022-11-24T10:08:20;11.90;99.90
1225;DHT22;602;48.000;7.840;2022-11-24T10:10:53;11.90;99.90
1225;DHT22;602;48.000;7.840;2022-11-24T10:13:39;12.10;99.90
1225;DHT22;602;48.000;7.840;2022-11-24T10:16:14;12.20;99.90
1225;DHT22;602;48.000;7.840;2022-11-24T10:18:53;12.30;99.90
1225;DHT22;602;48.000;7.840;2022-11-24T10:21:33;12.50;99.90
1225;DHT22;602;48.000;7.840;2022-11-24T10:24:23;12.50;99.90
1225;DHT22;602;48.000;7.840;2022-11-24T10:26:56;12.50;99.90
1225;DHT22;602;48.000;7.840;2022-11-24T10:29:29;12.70;99.90
1225;DHT22;602;48.000;7.840;2022-11-24T10:31:59;12.80;99.90
1225;DHT22;602;48.000;7.840;2022-11-24T10:34:31;13.00;99.90
1225;DHT22;602;48.000;7.840;2022-11-24T10:37:03;13.10;99.90
1225;DHT22;602;48.000;7.840;2022-11-24T10:39:36;13.40;99.90
1225;DHT22;602;48.000;7.840;2022-11-24T10:42:09;13.70;99.90
1225;DHT22;602;48.000;7.840;2022-11-24T10:44:40;13.80;99.90
1225;DHT22;602;48.000;7.840;2022-11-24T10:47:16;13.90;99.90
1225;DHT22;602;48.000;7.840;2022-11-24T10:49:49;13.90;99.90
1225;DHT22;602;48.000;7.840;2022-11-24T10:52:18;14.10;99.90
1225;DHT22;602;48.000;7.840;2022-11-24T10:54:57;14.00;99.90
1225;DHT22;602;48.000;7.840;2022-11-24T10:57:30;14.30;99.90
1225;DHT22;602;48.000;7.840;2022-11-24T10:59:57;14.40;99.90
1225;DHT22;602;48.000;7.840;2022-11-24T11:02:28;14.40;99.90
1225;DHT22;602;48.000;7.840;2022-11-24T11:04:56;14.60;99.90
1225;DHT22;602;48.000;7.840;2022-11-24T11:07:24;14.80;99.90
1225;DHT22;602;48.000;7.840;2022-11-24T11:10:17;15.00;99.90
1225;DHT22;602;48.000;7.840;2022-11-24T11:12:44;15.10;99.90
1225;DHT22;602;48.000;7.840;2022-11-24T11:15:25;15.20;99.90
1225;DHT22;602;48.000;7.840;2022-11-24T11:17:56;15.30;99.90
1225;DHT22;602;48.000;7.840;2022-11-24T11:20:27;15.20;99.90
1225;DHT22;602;48.000;7.840;2022-11-24T11:22:56;15.30;99.90
1225;DHT22;602;48.000;7.840;2022-11-24T11:25:28;15.40;99.90
1225;DHT22;602;48.000;7.840;2022-11-24T11:28:17;15.50;99.90
1225;DHT22;602;48.000;7.840;2022-11-24T11:30:55;15.80;99.90
1225;DHT22;602;48.000;7.840;2022-11-24T11:33:26;15.70;99.90
1225;DHT22;602;48.000;7.840;2022-11-24T11:35:55;15.80;99.90
1225;DHT22;602;48.000;7.840;2022-11-24T11:38:23;15.90;99.90
1225;DHT22;602;48.000;7.840;2022-11-24T11:40:52;15.80;99.90
1225;DHT22;602;48.000;7.840;2022-11-24T11:43:24;15.80;99.90
1225;DHT22;602;48.000;7.840;2022-11-24T11:45:58;16.00;99.90
1225;DHT22;602;48.000;7.840;2022-11-24T11:48:29;15.90;99.90
1225;DHT22;602;48.000;7.840;2022-11-24T11:51:01;15.90;99.90
1225;DHT22;602;48.000;7.840;2022-11-24T11:53:38;15.90;99.90
1225;DHT22;602;48.000;7.840;2022-11-24T11:56:20;15.80;99.90
1225;DHT22;602;48.000;7.840;2022-11-24T11:59:04;15.90;99.90
1225;DHT22;602;48.000;7.840;2022-11-24T12:04:43;15.90;99.90
1225;DHT22;602;48.000;7.840;2022-11-24T12:07:27;16.10;99.90
1225;DHT22;602;48.000;7.840;2022-11-24T12:10:02;16.20;99.90
1225;DHT22;602;48.000;7.840;2022-11-24T12:24:10;16.30;99.90
1225;DHT22;602;48.000;7.840;2022-11-24T12:34:46;16.60;99.90
1225;DHT22;602;48.000;7.840;2022-11-24T12:38:36;16.60;99.90
1225;DHT22;602;48.000;7.840;2022-11-24T12:52:07;17.00;99.90
1225;DHT22;602;48.000;7.840;2022-11-24T13:22:31;16.30;99.90
1225;DHT22;602;48.000;7.840;2022-11-24T13:25:32;16.30;99.90
1225;DHT22;602;48.000;7.840;2022-11-24T13:37:47;16.20;99.90
1225;DHT22;602;48.000;7.840;2022-11-24T13:40:49;16.20;99.90
1225;DHT22;602;48.000;7.840;2022-11-24T13:43:38;16.10;99.90
1225;DHT22;602;48.000;7.840;2022-11-24T13:47:27;16.00;99.90
1225;DHT22;602;48.000;7.840;2022-11-24T13:53:42;15.70;99.90
1225;DHT22;602;48.000;7.840;2022-11-24T13:56:24;15.80;99.90
1225;DHT22;602;48.000;7.840;2022-11-24T14:06:11;15.40;99.90
1225;DHT22;602;48.000;7.840;2022-11-24T14:09:22;15.20;99.90
1225;DHT22;602;48.000;7.840;2022-11-24T14:12:13;15.00;99.90
1225;DHT22;602;48.000;7.840;2022-11-24T14:18:42;14.80;99.90
1225;DHT22;602;48.000;7.840;2022-11-24T14:28:30;14.60;99.90
1225;DHT22;602;48.000;7.840;2022-11-24T14:31:32;14.50;99.90
1225;DHT22;602;48.000;7.840;2022-11-24T14:37:53;14.40;99.90
1225;DHT22;602;48.000;7.840;2022-11-24T14:41:19;14.40;99.90
1225;DHT22;602;48.000;7.840;2022-11-24T14:47:03;14.40;99.90
1225;DHT22;602;48.000;7.840;2022-11-24T14:49:32;14.30;99.90
1225;DHT22;602;48.000;7.840;2022-11-24T14:52:01;14.30;99.90
1225;DHT22;602;48.000;7.840;2022-11-24T14:54:29;14.40;99.90
1225;DHT22;602;48.000;7.840;2022-11-24T14:56:58;14.40;99.90
1225;DHT22;602;48.000;7.840;2022-11-24T15:01:57;14.20;99.90
1225;DHT22;602;48.000;7.840;2022-11-24T15:14:46;13.90;99.90
1225;DHT22;602;48.000;7.840;2022-11-24T15:23:51;13.90;99.90
1225;DHT22;602;48.000;7.840;2022-11-24T15:26:35;14.00;99.90
1225;DHT22;602;48.000;7.840;2022-11-24T15:29:17;13.90;99.90
1225;DHT22;602;48.000;7.840;2022-11-24T15:32:22;13.80;99.90
1225;DHT22;602;48.000;7.840;2022-11-24T15:35:00;13.70;99.90
1225;DHT22;602;48.000;7.840;2022-11-24T15:37:31;13.70;99.90
1225;DHT22;602;48.000;7.840;2022-11-24T15:40:01;13.70;99.90
1225;DHT22;602;48.000;7.840;2022-11-24T15:42:48;13.70;99.90
1225;DHT22;602;48.000;7.840;2022-11-24T15:45:20;13.80;99.90
1225;DHT22;602;48.000;7.840;2022-11-24T15:47:49;13.80;99.90
1225;DHT22;602;48.000;7.840;2022-11-24T15:50:16;13.80;99.90
1225;DHT22;602;48.000;7.840;2022-11-24T15:52:44;13.80;99.90
1225;DHT22;602;48.000;7.840;2022-11-24T15:55:16;13.80;99.90
1225;DHT22;602;48.000;7.840;2022-11-24T15:57:43;13.60;99.90
1225;DHT22;602;48.000;7.840;2022-11-24T16:00:14;13.50;99.90
1225;DHT22;602;48.000;7.840;2022-11-24T16:02:41;13.30;99.90
1225;DHT22;602;48.000;7.840;2022-11-24T16:05:10;13.30;99.90
1225;DHT22;602;48.000;7.840;2022-11-24T16:07:38;13.30;99.90
1225;DHT22;602;48.000;7.840;2022-11-24T16:10:06;13.30;99.90
1225;DHT22;602;48.000;7.840;2022-11-24T16:12:34;13.30;99.90
1225;DHT22;602;48.000;7.840;2022-11-24T16:15:00;13.30;99.90
1225;DHT22;602;48.000;7.840;2022-11-24T16:17:27;13.20;99.90
1225;DHT22;602;48.000;7.840;2022-11-24T16:19:54;13.00;99.90
1225;DHT22;602;48.000;7.840;2022-11-24T16:22:22;13.00;99.90
1225;DHT22;602;48.000;7.840;2022-11-24T16:24:49;12.90;99.90
1225;DHT22;602;48.000;7.840;2022-11-24T16:27:16;12.90;99.90
1225;DHT22;602;48.000;7.840;2022-11-24T16:29:43;12.80;99.90
1225;DHT22;602;48.000;7.840;2022-11-24T16:32:10;12.60;99.90
1225;DHT22;602;48.000;7.840;2022-11-24T16:34:36;12.50;99.90
1225;DHT22;602;48.000;7.840;2022-11-24T16:37:03;12.20;99.90
1225;DHT22;602;48.000;7.840;2022-11-24T16:39:31;11.90;99.90
1225;DHT22;602;48.000;7.840;2022-11-24T16:41:58;11.70;99.90
1225;DHT22;602;48.000;7.840;2022-11-24T16:44:25;11.60;99.90
1225;DHT22;602;48.000;7.840;2022-11-24T16:46:52;11.70;99.90
1225;DHT22;602;48.000;7.840;2022-11-24T16:49:19;11.80;99.90
1225;DHT22;602;48.000;7.840;2022-11-24T16:51:46;11.70;99.90
1225;DHT22;602;48.000;7.840;2022-11-24T16:54:13;11.50;99.90
1225;DHT22;602;48.000;7.840;2022-11-24T16:56:41;11.40;99.90
1225;DHT22;602;48.000;7.840;2022-11-24T16:59:08;11.40;99.90
1225;DHT22;602;48.000;7.840;2022-11-24T17:01:35;11.40;99.90
1225;DHT22;602;48.000;7.840;2022-11-24T17:04:04;11.20;99.90
1225;DHT22;602;48.000;7.840;2022-11-24T17:06:32;11.10;99.90
1225;DHT22;602;48.000;7.840;2022-11-24T17:08:59;11.10;99.90
1225;DHT22;602;48.000;7.840;2022-11-24T17:11:27;11.10;99.90
1225;DHT22;602;48.000;7.840;2022-11-24T17:13:56;11.00;99.90
1225;DHT22;602;48.000;7.840;2022-11-24T17:16:25;10.80;99.90
1225;DHT22;602;48.000;7.840;2022-11-24T17:18:52;10.60;99.90
1225;DHT22;602;48.000;7.840;2022-11-24T17:21:20;10.50;99.90
1225;DHT22;602;48.000;7.840;2022-11-24T17:23:52;10.50;99.90
1225;DHT22;602;48.000;7.840;2022-11-24T17:26:19;10.60;99.90
1225;DHT22;602;48.000;7.840;2022-11-24T17:28:46;10.60;99.90
1225;DHT22;602;48.000;7.840;2022-11-24T17:31:18;10.60;99.90
1225;DHT22;602;48.000;7.840;2022-11-24T17:33:46;10.60;99.90
1225;DHT22;602;48.000;7.840;2022-11-24T17:36:13;10.30;99.90
1225;DHT22;602;48.000;7.840;2022-11-24T17:38:40;10.20;99.90
1225;DHT22;602;48.000;7.840;2022-11-24T17:41:07;10.20;99.90
1225;DHT22;602;48.000;7.840;2022-11-24T17:43:34;10.20;99.90
1225;DHT22;602;48.000;7.840;2022-11-24T17:46:02;10.20;99.90
1225;DHT22;602;48.000;7.840;2022-11-24T17:48:31;10.00;99.90
1225;DHT22;602;48.000;7.840;2022-11-24T17:51:00;9.90;99.90
1225;DHT22;602;48.000;7.840;2022-11-24T17:53:27;10.00;99.90
1225;DHT22;602;48.000;7.840;2022-11-24T17:55:57;9.90;99.90
1225;DHT22;602;48.000;7.840;2022-11-24T17:58:25;10.00;99.90
1225;DHT22;602;48.000;7.840;2022-11-24T18:00:52;9.80;99.90
1225;DHT22;602;48.000;7.840;2022-11-24T18:03:19;9.80;99.90
1225;DHT22;602;48.000;7.840;2022-11-24T18:05:48;9.80;99.90
1225;DHT22;602;48.000;7.840;2022-11-24T18:08:15;9.90;99.90
1225;DHT22;602;48.000;7.840;2022-11-24T18:10:42;9.90;99.90
1225;DHT22;602;48.000;7.840;2022-11-24T18:13:08;9.90;99.90
1225;DHT22;602;48.000;7.840;2022-11-24T18:15:35;9.90;99.90
1225;DHT22;602;48.000;7.840;2022-11-24T18:18:03;9.70;99.90
1225;DHT22;602;48.000;7.840;2022-11-24T18:20:29;9.50;99.90
1225;DHT22;602;48.000;7.840;2022-11-24T18:22:59;9.50;99.90
1225;DHT22;602;48.000;7.840;2022-11-24T18:25:26;9.50;99.90
1225;DHT22;602;48.000;7.840;2022-11-24T18:27:54;9.40;99.90
1225;DHT22;602;48.000;7.840;2022-11-24T18:30:21;9.50;99.90
1225;DHT22;602;48.000;7.840;2022-11-24T18:32:48;9.40;99.90
1225;DHT22;602;48.000;7.840;2022-11-24T18:35:15;9.40;99.90
1225;DHT22;602;48.000;7.840;2022-11-24T18:37:42;9.30;99.90
1225;DHT22;602;48.000;7.840;2022-11-24T18:40:11;9.30;99.90
1225;DHT22;602;48.000;7.840;2022-11-24T18:42:38;9.40;99.90
1225;DHT22;602;48.000;7.840;2022-11-24T18:45:06;9.30;99.90